sensor_id;sensor_type;location;lat;lon;timestamp;temperature;humidity
8114;DHT22;4099;52.684;9.918;2022-09-13T00:00:25;13.80;99.90
8114;DHT22;4099;52.684;9.918;2022-09-13T00:05:27;13.40;99.90
8114;DHT22;4099;52.684;9.918;2022-09-13T00:10:29;13.30;99.90
8114;DHT22;4099;52.684;9.918;2022-09-13T00:15:34;13.30;99.90
8114;DHT22;4099;52.684;9.918;2022-09-13T00:20:36;13.10;99.90
8114;DHT22;4099;52.684;9.918;2022-09-13T00:25:38;13.20;99.90
8114;DHT22;4099;52.684;9.918;2022-09-13T00:30:41;13.50;99.90
8114;DHT22;4099;52.684;9.918;2022-09-13T00:35:43;13.50;99.90
8114;DHT22;4099;52.684;9.918;2022-09-13T00:40:45;13.50;99.90
8114;DHT22;4099;52.684;9.918;2022-09-13T00:45:48;13.70;99.90
8114;DHT22;4099;52.684;9.918;2022-09-13T00:50:53;13.90;99.90
8114;DHT22;4099;52.684;9.918;2022-09-13T00:55:59;14.00;99.90
8114;DHT22;4099;52.684;9.918;2022-09-13T01:01:03;14.00;99.90
8114;DHT22;4099;52.684;9.918;2022-09-13T01:06:10;14.00;99.90
8114;DHT22;4099;52.684;9.918;2022-09-13T01:11:19;13.80;99.90
8114;DHT22;4099;52.684;9.918;2022-09-13T01:16:26;14.00;99.90
8114;DHT22;4099;52.684;9.918;2022-09-13T01:21:57;14.10;99.90
8114;DHT22;4099;52.684;9.918;2022-09-13T01:33:15;14.30;99.90
8114;DHT22;4099;52.684;9.918;2022-09-13T01:38:43;14.30;99.90
8114;DHT22;4099;52.684;9.918;2022-09-13T01:43:55;14.40;99.90
8114;DHT22;4099;52.684;9.918;2022-09-13T01:49:05;14.30;99.90
8114;DHT22;4099;52.684;9.918;2022-09-13T01:54:16;14.40;99.90
8114;DHT22;4099;52.684;9.918;2022-09-13T01:59:21;14.30;99.90
8114;DHT22;4099;52.684;9.918;2022-09-13T02:04:29;14.30;99.90
8114;DHT22;4099;52.684;9.918;2022-09-13T02:09:40;14.40;99.90
8114;DHT22;4099;52.684;9.918;2022-09-13T02:14:46;14.30;99.90
8114;DHT22;4099;52.684;9.918;2022-09-13T02:19:56;14.20;99.90
8114;DHT22;4099;52.684;9.918;2022-09-13T02:25:02;14.20;99.90
8114;DHT22;4099;52.684;9.918;2022-09-13T02:30:07;14.00;99.90
8114;DHT22;4099;52.684;9.918;2022-09-13T02:35:15;14.00;99.90
8114;DHT22;4099;52.684;9.918;2022-09-13T02:40:25;14.10;99.90
8114;DHT22;4099;52.684;9.918;2022-09-13T02:45:32;14.10;99.90
8114;DHT22;4099;52.684;9.918;2022-09-13T02:50:45;14.00;99.90
8114;DHT22;4099;52.684;9.918;2022-09-13T02:55:52;14.20;99.90
8114;DHT22;4099;52.684;9.918;2022-09-13T03:00:56;14.20;99.90
8114;DHT22;4099;52.684;9.918;2022-09-13T03:05:59;14.10;99.90
8114;DHT22;4099;52.684;9.918;2022-09-13T03:11:10;14.40;99.90
8114;DHT22;4099;52.684;9.918;2022-09-13T03:16:28;14.50;99.90
8114;DHT22;4099;52.684;9.918;2022-09-13T03:21:48;14.60;99.90
8114;DHT22;4099;52.684;9.918;2022-09-13T03:27:09;14.60;99.90
8114;DHT22;4099;52.684;9.918;2022-09-13T03:32:19;14.70;99.90
8114;DHT22;4099;52.684;9.918;2022-09-13T03:37:30;14.60;99.90
8114;DHT22;4099;52.684;9.918;2022-09-13T03:42:36;14.30;99.90
8114;DHT22;4099;52.684;9.918;2022-09-13T03:47:43;14.50;99.90
8114;DHT22;4099;52.684;9.918;2022-09-13T03:52:50;14.50;99.90
8114;DHT22;4099;52.684;9.918;2022-09-13T03:57:53;14.60;99.90
8114;DHT22;4099;52.684;9.918;2022-09-13T04:02:55;14.70;99.90
8114;DHT22;4099;52.684;9.918;2022-09-13T04:07:59;14.70;99.90
8114;DHT22;4099;52.684;9.918;2022-09-13T04:13:01;14.70;99.90
8114;DHT22;4099;52.684;9.918;2022-09-13T04:18:03;14.60;99.90
8114;DHT22;4099;52.684;9.918;2022-09-13T04:23:06;14.60;99.90
8114;DHT22;4099;52.684;9.918;2022-09-13T04:28:08;14.50;99.90
8114;DHT22;4099;52.684;9.918;2022-09-13T04:33:11;14.30;99.90
8114;DHT22;4099;52.684;9.918;2022-09-13T04:38:14;14.10;99.90
8114;DHT22;4099;52.684;9.918;2022-09-13T04:43:16;14.00;99.90
8114;DHT22;4099;52.684;9.918;2022-09-13T04:48:17;14.00;99.90
8114;DHT22;4099;52.684;9.918;2022-09-13T04:53:21;14.10;99.90
8114;DHT22;4099;52.684;9.918;2022-09-13T04:58:22;14.00;99.90
8114;DHT22;4099;52.684;9.918;2022-09-13T05:03:24;14.00;99.90
8114;DHT22;4099;52.684;9.918;2022-09-13T05:08:28;14.20;99.90
8114;DHT22;4099;52.684;9.918;2022-09-13T05:13:31;14.50;99.90
8114;DHT22;4099;52.684;9.918;2022-09-13T05:18:34;14.70;99.90
8114;DHT22;4099;52.684;9.918;2022-09-13T05:23:37;14.60;99.90
8114;DHT22;4099;52.684;9.918;2022-09-13T05:28:39;14.80;99.90
8114;DHT22;4099;52.684;9.918;2022-09-13T05:33:41;14.80;99.90
8114;DHT22;4099;52.684;9.918;2022-09-13T05:38:45;14.90;99.90
8114;DHT22;4099;52.684;9.918;2022-09-13T05:43:47;15.00;99.90
8114;DHT22;4099;52.684;9.918;2022-09-13T05:48:49;15.00;99.90
8114;DHT22;4099;52.684;9.918;2022-09-13T05:53:52;15.20;99.90
8114;DHT22;4099;52.684;9.918;2022-09-13T05:58:55;15.20;99.90
8114;DHT22;4099;52.684;9.918;2022-09-13T06:03:58;15.10;99.90
8114;DHT22;4099;52.684;9.918;2022-09-13T06:09:01;15.10;99.90
8114;DHT22;4099;52.684;9.918;2022-09-13T06:14:06;15.20;99.90
8114;DHT22;4099;52.684;9.918;2022-09-13T06:19:07;15.30;99.90
8114;DHT22;4099;52.684;9.918;2022-09-13T06:24:11;15.40;99.90
8114;DHT22;4099;52.684;9.918;2022-09-13T06:29:14;15.40;99.90
8114;DHT22;4099;52.684;9.918;2022-09-13T06:34:16;15.50;99.90
8114;DHT22;4099;52.684;9.918;2022-09-13T06:39:19;15.50;99.90
8114;DHT22;4099;52.684;9.918;2022-09-13T06:44:21;15.70;99.90
8114;DHT22;4099;52.684;9.918;2022-09-13T06:49:23;15.70;99.90
8114;DHT22;4099;52.684;9.918;2022-09-13T06:54:26;15.80;99.90
8114;DHT22;4099;52.684;9.918;2022-09-13T06:59:27;15.80;99.90
8114;DHT22;4099;52.684;9.918;2022-09-13T07:04:29;15.90;99.90
8114;DHT22;4099;52.684;9.918;2022-09-13T07:09:32;15.90;99.90
8114;DHT22;4099;52.684;9.918;2022-09-13T07:14:34;16.00;99.90
8114;DHT22;4099;52.684;9.918;2022-09-13T07:19:36;16.00;99.90
8114;DHT22;4099;52.684;9.918;2022-09-13T07:24:39;15.90;99.90
8114;DHT22;4099;52.684;9.918;2022-09-13T07:29:41;16.00;99.90
8114;DHT22;4099;52.684;9.918;2022-09-13T07:34:43;16.00;99.90
8114;DHT22;4099;52.684;9.918;2022-09-13T07:39:46;16.20;99.90
8114;DHT22;4099;52.684;9.918;2022-09-13T07:44:48;16.30;99.90
8114;DHT22;4099;52.684;9.918;2022-09-13T07:49:50;16.30;99.90
8114;DHT22;4099;52.684;9.918;2022-09-13T07:54:53;16.40;99.90
8114;DHT22;4099;52.684;9.918;2022-09-13T07:59:56;16.40;99.90
8114;DHT22;4099;52.684;9.918;2022-09-13T08:04:58;16.50;99.90
8114;DHT22;4099;52.684;9.918;2022-09-13T08:10:01;16.50;99.90
8114;DHT22;4099;52.684;9.918;2022-09-13T08:15:04;16.50;99.90
8114;DHT22;4099;52.684;9.918;2022-09-13T08:20:06;16.60;99.90
8114;DHT22;4099;52.684;9.918;2022-09-13T08:25:10;16.70;99.90
8114;DHT22;4099;52.684;9.918;2022-09-13T08:30:12;16.70;99.90
8114;DHT22;4099;52.684;9.918;2022-09-13T08:35:14;16.80;99.90
8114;DHT22;4099;52.684;9.918;2022-09-13T08:40:17;17.00;99.90
8114;DHT22;4099;52.684;9.918;2022-09-13T08:45:19;17.40;99.90
8114;DHT22;4099;52.684;9.918;2022-09-13T08:50:26;17.40;99.90
8114;DHT22;4099;52.684;9.918;2022-09-13T08:55:39;17.40;99.90
8114;DHT22;4099;52.684;9.918;2022-09-13T09:00:49;17.20;99.90
8114;DHT22;4099;52.684;9.918;2022-09-13T09:05:53;17.20;99.90
8114;DHT22;4099;52.684;9.918;2022-09-13T09:10:59;17.30;99.90
8114;DHT22;4099;52.684;9.918;2022-09-13T09:16:06;17.40;99.90
8114;DHT22;4099;52.684;9.918;2022-09-13T09:21:15;17.50;99.90
8114;DHT22;4099;52.684;9.918;2022-09-13T09:26:20;17.50;99.90
8114;DHT22;4099;52.684;9.918;2022-09-13T09:31:31;17.70;99.90
8114;DHT22;4099;52.684;9.918;2022-09-13T09:36:38;17.50;99.90
8114;DHT22;4099;52.684;9.918;2022-09-13T09:41:44;17.60;99.90
8114;DHT22;4099;52.684;9.918;2022-09-13T09:46:49;17.80;99.90
8114;DHT22;4099;52.684;9.918;2022-09-13T09:51:52;18.20;99.90
8114;DHT22;4099;52.684;9.918;2022-09-13T09:56:57;18.40;99.90
8114;DHT22;4099;52.684;9.918;2022-09-13T10:02:00;18.70;99.90
8114;DHT22;4099;52.684;9.918;2022-09-13T10:07:10;18.80;99.90
8114;DHT22;4099;52.684;9.918;2022-09-13T10:12:26;19.00;99.90
8114;DHT22;4099;52.684;9.918;2022-09-13T10:17:29;19.50;99.90
8114;DHT22;4099;52.684;9.918;2022-09-13T10:22:31;19.80;99.90
8114;DHT22;4099;52.684;9.918;2022-09-13T10:27:38;19.90;99.90
8114;DHT22;4099;52.684;9.918;2022-09-13T10:32:42;19.70;99.90
8114;DHT22;4099;52.684;9.918;2022-09-13T10:37:55;19.30;99.90
8114;DHT22;4099;52.684;9.918;2022-09-13T10:43:00;19.40;99.90
8114;DHT22;4099;52.684;9.918;2022-09-13T10:48:05;19.40;99.90
8114;DHT22;4099;52.684;9.918;2022-09-13T10:53:30;19.40;99.90
8114;DHT22;4099;52.684;9.918;2022-09-13T10:58:35;19.50;99.90
8114;DHT22;4099;52.684;9.918;2022-09-13T11:09:12;19.50;99.90
8114;DHT22;4099;52.684;9.918;2022-09-13T11:14:30;19.60;99.90
8114;DHT22;4099;52.684;9.918;2022-09-13T11:19:55;19.70;99.90
8114;DHT22;4099;52.684;9.918;2022-09-13T11:25:20;19.70;99.90
8114;DHT22;4099;52.684;9.918;2022-09-13T11:30:30;19.40;99.90
8114;DHT22;4099;52.684;9.918;2022-09-13T11:35:43;19.40;99.90
8114;DHT22;4099;52.684;9.918;2022-09-13T11:40:54;19.50;99.90
8114;DHT22;4099;52.684;9.918;2022-09-13T11:46:07;19.40;99.90
8114;DHT22;4099;52.684;9.918;2022-09-13T11:51:17;18.90;99.90
8114;DHT22;4099;52.684;9.918;2022-09-13T11:56:24;18.60;99.90
8114;DHT22;4099;52.684;9.918;2022-09-13T12:01:36;18.40;99.90
8114;DHT22;4099;52.684;9.918;2022-09-13T12:06:41;18.30;99.90
8114;DHT22;4099;52.684;9.918;2022-09-13T12:11:49;18.40;99.90
8114;DHT22;4099;52.684;9.918;2022-09-13T12:16:57;18.80;99.90
8114;DHT22;4099;52.684;9.918;2022-09-13T12:22:02;19.30;99.90
8114;DHT22;4099;52.684;9.918;2022-09-13T12:27:08;19.80;99.90
8114;DHT22;4099;52.684;9.918;2022-09-13T12:32:14;20.00;99.90
8114;DHT22;4099;52.684;9.918;2022-09-13T12:37:31;20.50;99.90
8114;DHT22;4099;52.684;9.918;2022-09-13T12:42:56;21.50;99.90
8114;DHT22;4099;52.684;9.918;2022-09-13T12:48:17;22.70;99.90
8114;DHT22;4099;52.684;9.918;2022-09-13T12:59:09;23.50;87.10
8114;DHT22;4099;52.684;9.918;2022-09-13T13:04:18;23.00;99.90
8114;DHT22;4099;52.684;9.918;2022-09-13T13:09:27;22.90;22.20
8114;DHT22;4099;52.684;9.918;2022-09-13T13:14:46;23.00;99.90
8114;DHT22;4099;52.684;9.918;2022-09-13T13:19:54;23.40;1.00
8114;DHT22;4099;52.684;9.918;2022-09-13T13:24:55;23.20;9.20
8114;DHT22;4099;52.684;9.918;2022-09-13T13:35:34;23.00;23.70
8114;DHT22;4099;52.684;9.918;2022-09-13T13:40:36;23.00;1.00
8114;DHT22;4099;52.684;9.918;2022-09-13T13:45:55;22.80;1.00
8114;DHT22;4099;52.684;9.918;2022-09-13T13:51:25;22.50;26.70
8114;DHT22;4099;52.684;9.918;2022-09-13T13:56:45;21.80;71.90
8114;DHT22;4099;52.684;9.918;2022-09-13T14:01:50;21.20;99.90
8114;DHT22;4099;52.684;9.918;2022-09-13T14:07:03;21.30;91.30
8114;DHT22;4099;52.684;9.918;2022-09-13T14:12:24;21.40;56.60
8114;DHT22;4099;52.684;9.918;2022-09-13T14:17:53;21.10;99.90
8114;DHT22;4099;52.684;9.918;2022-09-13T14:23:17;21.20;5.90
8114;DHT22;4099;52.684;9.918;2022-09-13T14:28:20;21.20;37.60
8114;DHT22;4099;52.684;9.918;2022-09-13T14:33:26;21.10;62.50
8114;DHT22;4099;52.684;9.918;2022-09-13T14:38:33;21.00;1.00
8114;DHT22;4099;52.684;9.918;2022-09-13T14:43:35;21.10;1.00
8114;DHT22;4099;52.684;9.918;2022-09-13T14:48:40;21.10;1.00
8114;DHT22;4099;52.684;9.918;2022-09-13T14:53:46;21.10;1.00
8114;DHT22;4099;52.684;9.918;2022-09-13T14:58:52;21.10;1.00
8114;DHT22;4099;52.684;9.918;2022-09-13T15:03:56;20.90;1.00
8114;DHT22;4099;52.684;9.918;2022-09-13T15:09:14;21.00;1.00
8114;DHT22;4099;52.684;9.918;2022-09-13T15:14:24;21.10;1.00
8114;DHT22;4099;52.684;9.918;2022-09-13T15:24:50;21.00;1.00
8114;DHT22;4099;52.684;9.918;2022-09-13T15:29:54;21.00;1.00
8114;DHT22;4099;52.684;9.918;2022-09-13T15:34:58;20.90;1.00
8114;DHT22;4099;52.684;9.918;2022-09-13T15:40:13;20.80;1.00
8114;DHT22;4099;52.684;9.918;2022-09-13T15:45:16;20.60;1.00
8114;DHT22;4099;52.684;9.918;2022-09-13T15:50:23;20.40;1.00
8114;DHT22;4099;52.684;9.918;2022-09-13T15:55:28;20.40;1.00
8114;DHT22;4099;52.684;9.918;2022-09-13T16:00:32;20.20;1.00
8114;DHT22;4099;52.684;9.918;2022-09-13T16:05:34;20.10;1.00
8114;DHT22;4099;52.684;9.918;2022-09-13T16:10:39;19.80;1.00
8114;DHT22;4099;52.684;9.918;2022-09-13T16:15:42;19.80;1.00
8114;DHT22;4099;52.684;9.918;2022-09-13T16:20:45;19.50;1.00
8114;DHT22;4099;52.684;9.918;2022-09-13T16:25:50;19.10;1.00
8114;DHT22;4099;52.684;9.918;2022-09-13T16:30:54;18.80;1.00
8114;DHT22;4099;52.684;9.918;2022-09-13T16:35:56;18.80;1.00
8114;DHT22;4099;52.684;9.918;2022-09-13T16:41:03;18.70;52.20
8114;DHT22;4099;52.684;9.918;2022-09-13T16:46:07;18.70;33.30
8114;DHT22;4099;52.684;9.918;2022-09-13T16:51:11;18.40;10.20
8114;DHT22;4099;52.684;9.918;2022-09-13T16:56:18;18.30;99.90
8114;DHT22;4099;52.684;9.918;2022-09-13T17:01:23;18.10;20.20
8114;DHT22;4099;52.684;9.918;2022-09-13T17:06:26;18.00;67.10
8114;DHT22;4099;52.684;9.918;2022-09-13T17:11:32;17.80;99.90
8114;DHT22;4099;52.684;9.918;2022-09-13T17:16:38;17.60;99.90
8114;DHT22;4099;52.684;9.918;2022-09-13T17:21:41;17.30;99.90
8114;DHT22;4099;52.684;9.918;2022-09-13T17:26:48;17.00;99.90
8114;DHT22;4099;52.684;9.918;2022-09-13T17:31:51;16.80;99.90
8114;DHT22;4099;52.684;9.918;2022-09-13T17:36:53;16.40;99.90
8114;DHT22;4099;52.684;9.918;2022-09-13T17:41:58;16.00;99.90
8114;DHT22;4099;52.684;9.918;2022-09-13T17:47:00;15.80;99.90
8114;DHT22;4099;52.684;9.918;2022-09-13T17:52:06;15.60;99.90
8114;DHT22;4099;52.684;9.918;2022-09-13T17:57:11;15.40;99.90
8114;DHT22;4099;52.684;9.918;2022-09-13T18:02:15;15.60;99.90
8114;DHT22;4099;52.684;9.918;2022-09-13T18:07:18;15.50;99.90
8114;DHT22;4099;52.684;9.918;2022-09-13T18:12:22;15.40;99.90
8114;DHT22;4099;52.684;9.918;2022-09-13T18:17:25;15.40;99.90
8114;DHT22;4099;52.684;9.918;2022-09-13T18:22:28;15.30;99.90
8114;DHT22;4099;52.684;9.918;2022-09-13T18:27:32;15.30;99.90
8114;DHT22;4099;52.684;9.918;2022-09-13T18:32:35;15.10;99.90
8114;DHT22;4099;52.684;9.918;2022-09-13T18:37:37;15.00;99.90
8114;DHT22;4099;52.684;9.918;2022-09-13T18:42:41;14.80;99.90
8114;DHT22;4099;52.684;9.918;2022-09-13T18:47:44;14.60;99.90
8114;DHT22;4099;52.684;9.918;2022-09-13T18:52:46;14.50;99.90
8114;DHT22;4099;52.684;9.918;2022-09-13T18:57:50;14.40;99.90
8114;DHT22;4099;52.684;9.918;2022-09-13T19:02:53;14.30;99.90
8114;DHT22;4099;52.684;9.918;2022-09-13T19:07:56;14.10;99.90
8114;DHT22;4099;52.684;9.918;2022-09-13T19:13:03;14.00;99.90
8114;DHT22;4099;52.684;9.918;2022-09-13T19:18:06;13.80;99.90
8114;DHT22;4099;52.684;9.918;2022-09-13T19:23:09;13.80;99.90
8114;DHT22;4099;52.684;9.918;2022-09-13T19:28:13;13.70;99.90
8114;DHT22;4099;52.684;9.918;2022-09-13T19:33:15;13.50;99.90
8114;DHT22;4099;52.684;9.918;2022-09-13T19:38:20;13.40;99.90
8114;DHT22;4099;52.684;9.918;2022-09-13T19:43:24;13.30;99.90
8114;DHT22;4099;52.684;9.918;2022-09-13T19:48:26;13.20;99.90
8114;DHT22;4099;52.684;9.918;2022-09-13T19:53:29;13.10;99.90
8114;DHT22;4099;52.684;9.918;2022-09-13T19:58:33;13.00;99.90
8114;DHT22;4099;52.684;9.918;2022-09-13T20:03:36;12.90;99.90
8114;DHT22;4099;52.684;9.918;2022-09-13T20:08:38;12.80;99.90
8114;DHT22;4099;52.684;9.918;2022-09-13T20:13:44;12.70;99.90
8114;DHT22;4099;52.684;9.918;2022-09-13T20:18:48;12.70;99.90
8114;DHT22;4099;52.684;9.918;2022-09-13T20:23:53;12.60;99.90
8114;DHT22;4099;52.684;9.918;2022-09-13T20:29:00;12.60;99.90
8114;DHT22;4099;52.684;9.918;2022-09-13T20:34:04;12.60;99.90
8114;DHT22;4099;52.684;9.918;2022-09-13T20:39:07;12.60;99.90
8114;DHT22;4099;52.684;9.918;2022-09-13T20:44:12;12.50;99.90
8114;DHT22;4099;52.684;9.918;2022-09-13T20:49:14;12.40;99.90
8114;DHT22;4099;52.684;9.918;2022-09-13T20:54:16;12.60;99.90
8114;DHT22;4099;52.684;9.918;2022-09-13T20:59:20;12.80;99.90
8114;DHT22;4099;52.684;9.918;2022-09-13T21:04:22;13.00;99.90
8114;DHT22;4099;52.684;9.918;2022-09-13T21:09:25;13.00;99.90
8114;DHT22;4099;52.684;9.918;2022-09-13T21:14:29;12.60;99.90
8114;DHT22;4099;52.684;9.918;2022-09-13T21:19:32;12.30;99.90
8114;DHT22;4099;52.684;9.918;2022-09-13T21:24:34;12.20;99.90
8114;DHT22;4099;52.684;9.918;2022-09-13T21:29:38;12.00;99.90
8114;DHT22;4099;52.684;9.918;2022-09-13T21:34:41;12.00;99.90
8114;DHT22;4099;52.684;9.918;2022-09-13T21:39:43;12.20;99.90
8114;DHT22;4099;52.684;9.918;2022-09-13T21:44:47;12.50;99.90
8114;DHT22;4099;52.684;9.918;2022-09-13T21:49:49;12.60;99.90
8114;DHT22;4099;52.684;9.918;2022-09-13T21:54:52;12.80;99.90
8114;DHT22;4099;52.684;9.918;2022-09-13T21:59:57;12.70;99.90
8114;DHT22;4099;52.684;9.918;2022-09-13T22:04:59;12.60;99.90
8114;DHT22;4099;52.684;9.918;2022-09-13T22:10:02;12.30;99.90
8114;DHT22;4099;52.684;9.918;2022-09-13T22:15:09;11.90;99.90
8114;DHT22;4099;52.684;9.918;2022-09-13T22:20:12;11.70;99.90
8114;DHT22;4099;52.684;9.918;2022-09-13T22:25:14;11.70;99.90
8114;DHT22;4099;52.684;9.918;2022-09-13T22:30:18;11.70;99.90
8114;DHT22;4099;52.684;9.918;2022-09-13T22:35:20;11.90;99.90
8114;DHT22;4099;52.684;9.918;2022-09-13T22:40:23;12.00;99.90
8114;DHT22;4099;52.684;9.918;2022-09-13T22:45:27;12.00;99.90
8114;DHT22;4099;52.684;9.918;2022-09-13T22:50:30;12.00;99.90
8114;DHT22;4099;52.684;9.918;2022-09-13T22:55:33;11.70;99.90
8114;DHT22;4099;52.684;9.918;2022-09-13T23:00:37;11.40;99.90
8114;DHT22;4099;52.684;9.918;2022-09-13T23:05:39;11.30;99.90
8114;DHT22;4099;52.684;9.918;2022-09-13T23:10:50;11.30;99.90
8114;DHT22;4099;52.684;9.918;2022-09-13T23:15:54;11.50;99.90
8114;DHT22;4099;52.684;9.918;2022-09-13T23:20:57;11.40;99.90
8114;DHT22;4099;52.684;9.918;2022-09-13T23:26:04;11.50;99.90
8114;DHT22;4099;52.684;9.918;2022-09-13T23:31:12;11.40;99.90
8114;DHT22;4099;52.684;9.918;2022-09-13T23:36:16;11.20;99.90
8114;DHT22;4099;52.684;9.918;2022-09-13T23:41:19;11.10;99.90
8114;DHT22;4099;52.684;9.918;2022-09-13T23:46:22;11.30;99.90
8114;DHT22;4099;52.684;9.918;2022-09-13T23:51:25;11.40;99.90
8114;DHT22;4099;52.684;9.918;2022-09-13T23:56:29;11.40;99.90
